Archival Weather

Half Moon Bay

Half Moon Bay, California (KHAF)

Report from: Tuesday, September 19, 2023 8:00 AM PDT
Current time: Monday, June 17, 2024 4:28 AM PDT

Current weather – Weather history – Daily summaries
Weather forecast

Present weatherMist
Temperature15.0°C (59.0°F)
Dew point15.0°C (59.0°F)
Winds Calm
Visibility3 mi. (4.8 km)
Clouds Scattered clouds 600 ft. (183 m)
Ceiling: Overcast 1,300 ft. (396 m)
Altimeter29.99 in.Hg (1016 mB)
Relative humidity100 %
Density altitude156 ft. (48 m)
Remarks Fully automated report
Automated weather observing station with precipitation discriminator
Flight conditions Marginal Visual Meteorological Conditions
Raw dataKHAF 191500Z AUTO 00000KT 3SM BR SCT006 OVC013 15/15 A2999 RMK AO2
An error has occurred. This application may no longer respond until reloaded. Reload 🗙